Time;durP1;ratioP1;P1;durP2;ratioP2;P2;SDS_P1;SDS_P2;PMS_P1;PMS_P2;Temp;Humidity;BMP_temperature;BMP_pressure;BME280_temperature;BME280_humidity;BME280_pressure;Samples;Min_cycle;Max_cycle;Signal;HPM_P1;HPM_P2
2021/12/25 00:03:32;;;;;;;;;;;-0.80;99.90;;;;;;5116989;28;19915;-50
2021/12/25 00:05:58;;;;;;;;;;;-0.90;99.90;;;;;;5116711;27;20265;-48
2021/12/25 00:08:24;;;;;;;;;;;-0.90;99.90;;;;;;5116964;28;19924;-49
2021/12/25 00:10:50;;;;;;;;;;;-0.90;99.90;;;;;;5116801;28;19916;-48
2021/12/25 00:13:16;;;;;;;;;;;-0.90;99.90;;;;;;5116774;28;19915;-48
2021/12/25 00:15:42;;;;;;;;;;;-0.90;99.90;;;;;;5116770;28;19915;-48
2021/12/25 00:18:08;;;;;;;;;;;-0.90;99.90;;;;;;5116465;28;20373;-47
2021/12/25 00:20:34;;;;;;;;;;;-1.00;99.90;;;;;;5116610;28;19927;-49
2021/12/25 00:23:00;;;;;;;;;;;-1.10;99.90;;;;;;5116533;28;19920;-47
2021/12/25 00:25:26;;;;;;;;;;;-1.10;99.90;;;;;;5116574;28;19922;-46
2021/12/25 00:30:28;;;;;;;;;;;-1.10;99.90;;;;;;5116615;28;20379;-48
2021/12/25 00:33:00;;;;;;;;;;;-1.20;99.90;;;;;;5116653;28;19927;-46
2021/12/25 00:35:27;;;;;;;;;;;-1.20;99.90;;;;;;5116723;28;19923;-45
2021/12/25 00:37:52;;;;;;;;;;;-1.30;99.90;;;;;;5116407;28;19920;-46
2021/12/25 00:40:19;;;;;;;;;;;-1.20;99.90;;;;;;5116455;28;19915;-48
2021/12/25 00:42:44;;;;;;;;;;;-1.30;99.90;;;;;;5116056;28;19915;-47
2021/12/25 00:45:10;;;;;;;;;;;-1.30;99.90;;;;;;5116033;28;19915;-47
2021/12/25 00:47:36;;;;;;;;;;;-1.30;99.90;;;;;;5116203;28;19919;-47
2021/12/25 00:50:02;;;;;;;;;;;-1.40;99.90;;;;;;5115986;28;19915;-48
2021/12/25 00:52:27;;;;;;;;;;;-1.30;99.90;;;;;;5115981;28;19919;-47
2021/12/25 00:54:53;;;;;;;;;;;-1.30;99.90;;;;;;5116003;28;19915;-47
2021/12/25 00:57:18;;;;;;;;;;;-1.40;99.90;;;;;;5115984;28;19915;-48
2021/12/25 00:59:44;;;;;;;;;;;-1.40;99.90;;;;;;5115834;27;19915;-48
2021/12/25 01:02:09;;;;;;;;;;;-1.40;99.90;;;;;;5115874;27;19941;-50
2021/12/25 01:04:35;;;;;;;;;;;-1.40;99.90;;;;;;5116010;28;19923;-47
2021/12/25 01:07:00;;;;;;;;;;;-1.50;99.90;;;;;;5115769;28;20258;-47
2021/12/25 01:09:26;;;;;;;;;;;-1.50;99.90;;;;;;5114697;28;19969;-49
2021/12/25 01:11:53;;;;;;;;;;;-1.60;99.90;;;;;;5115691;28;19924;-48
2021/12/25 01:14:37;;;;;;;;;;;-1.60;99.90;;;;;;5115885;28;19915;-48
2021/12/25 01:20:19;;;;;;;;;;;-1.70;99.90;;;;;;5115312;28;20357;-47
2021/12/25 01:30:13;;;;;;;;;;;-1.80;99.90;;;;;;5115582;28;19959;-48
2021/12/25 01:38:04;;;;;;;;;;;-1.90;99.90;;;;;;5115493;28;19923;-47
2021/12/25 01:48:35;;;;;;;;;;;-2.00;99.90;;;;;;5115007;28;19920;-49
2021/12/25 01:51:01;;;;;;;;;;;-2.10;99.90;;;;;;5114998;28;20277;-47
2021/12/25 01:53:26;;;;;;;;;;;-2.10;99.90;;;;;;5115041;28;19916;-47
2021/12/25 01:55:52;;;;;;;;;;;-2.10;99.90;;;;;;5114786;28;20445;-46
2021/12/25 01:58:18;;;;;;;;;;;-2.10;99.90;;;;;;5115001;28;20357;-46
2021/12/25 02:00:46;;;;;;;;;;;-2.10;99.90;;;;;;5114932;28;19972;-49
2021/12/25 02:03:13;;;;;;;;;;;-2.10;99.90;;;;;;5114924;28;19922;-47
2021/12/25 02:05:39;;;;;;;;;;;-2.20;99.90;;;;;;5114622;28;19922;-46
2021/12/25 02:08:05;;;;;;;;;;;-2.30;99.90;;;;;;5114525;28;19919;-46
2021/12/25 02:10:30;;;;;;;;;;;-2.30;99.90;;;;;;5114650;28;20003;-47
2021/12/25 02:12:56;;;;;;;;;;;-2.30;99.90;;;;;;5114843;28;19931;-47
2021/12/25 02:15:24;;;;;;;;;;;-2.30;99.90;;;;;;5114614;28;19922;-47
2021/12/25 02:20:34;;;;;;;;;;;-2.10;99.90;;;;;;5114474;28;19935;-49
2021/12/25 02:23:03;;;;;;;;;;;-2.40;99.90;;;;;;5114243;28;19920;-46
2021/12/25 02:25:31;;;;;;;;;;;-2.40;99.90;;;;;;5114574;28;19916;-48
2021/12/25 02:27:56;;;;;;;;;;;-2.40;99.90;;;;;;5114192;27;19927;-48
2021/12/25 02:30:22;;;;;;;;;;;-2.50;99.90;;;;;;5113035;28;19915;-46
2021/12/25 02:32:48;;;;;;;;;;;-2.50;99.90;;;;;;5114191;28;19916;-47
2021/12/25 02:35:13;;;;;;;;;;;-2.50;99.90;;;;;;5114015;28;19920;-46
2021/12/25 02:37:40;;;;;;;;;;;-2.50;99.90;;;;;;5113942;28;19919;-48
2021/12/25 02:40:06;;;;;;;;;;;-2.50;99.90;;;;;;5114181;28;19929;-46
2021/12/25 02:42:34;;;;;;;;;;;-2.50;99.90;;;;;;5114133;28;19922;-46
2021/12/25 02:45:00;;;;;;;;;;;-2.50;99.90;;;;;;5113950;28;19916;-47
2021/12/25 02:47:29;;;;;;;;;;;-2.60;99.90;;;;;;5113761;28;19926;-49
2021/12/25 02:49:55;;;;;;;;;;;-2.60;99.90;;;;;;5113796;28;19922;-46
2021/12/25 02:52:20;;;;;;;;;;;-2.50;99.90;;;;;;5113968;28;19925;-47
2021/12/25 02:54:46;;;;;;;;;;;-2.60;99.90;;;;;;5113923;28;20343;-48
2021/12/25 02:57:11;;;;;;;;;;;-2.60;99.90;;;;;;5114067;28;19920;-45
2021/12/25 02:59:37;;;;;;;;;;;-2.60;99.90;;;;;;5113800;28;19981;-46
2021/12/25 03:02:06;;;;;;;;;;;-2.60;99.90;;;;;;5113691;28;20273;-47
2021/12/25 03:04:33;;;;;;;;;;;-2.60;99.90;;;;;;5113582;28;19955;-46
2021/12/25 03:06:58;;;;;;;;;;;-2.60;99.90;;;;;;5113473;28;19924;-45
2021/12/25 03:09:24;;;;;;;;;;;-2.60;99.90;;;;;;5113397;28;19919;-48
2021/12/25 03:11:51;;;;;;;;;;;-2.70;99.90;;;;;;5113511;28;20282;-48
2021/12/25 03:14:32;;;;;;;;;;;-2.70;99.90;;;;;;5113624;28;19915;-45
2021/12/25 03:16:58;;;;;;;;;;;-2.70;99.90;;;;;;5113155;28;20358;-46
2021/12/25 03:19:30;;;;;;;;;;;-2.80;99.90;;;;;;5113264;28;19920;-46
2021/12/25 03:21:57;;;;;;;;;;;-2.80;99.90;;;;;;5113330;28;19962;-48
2021/12/25 03:24:24;;;;;;;;;;;-2.80;99.90;;;;;;5113071;28;20440;-46
2021/12/25 03:26:54;;;;;;;;;;;-2.80;99.90;;;;;;5113330;28;19923;-46
2021/12/25 03:29:20;;;;;;;;;;;-2.90;99.90;;;;;;5113225;28;19926;-46
2021/12/25 03:31:46;;;;;;;;;;;-2.90;99.90;;;;;;5112887;28;19916;-47
2021/12/25 03:34:11;;;;;;;;;;;-2.90;99.90;;;;;;5112969;28;19926;-46
2021/12/25 03:36:37;;;;;;;;;;;-2.90;99.90;;;;;;5113320;28;19915;-47
2021/12/25 03:39:05;;;;;;;;;;;-2.90;99.90;;;;;;5113096;28;20007;-46
2021/12/25 03:41:30;;;;;;;;;;;-3.00;99.90;;;;;;5113011;28;20280;-48
2021/12/25 03:43:57;;;;;;;;;;;-3.00;99.90;;;;;;5113104;28;19922;-46
2021/12/25 03:46:23;;;;;;;;;;;-3.00;99.90;;;;;;5112824;28;20077;-47
2021/12/25 03:59:12;;;;;;;;;;;-3.10;99.90;;;;;;5112962;28;19916;-49
2021/12/25 04:04:09;;;;;;;;;;;-3.20;99.90;;;;;;5113215;28;20065;-47
2021/12/25 04:06:36;;;;;;;;;;;-3.20;99.90;;;;;;5112713;28;20408;-46
2021/12/25 04:09:09;;;;;;;;;;;-3.20;99.90;;;;;;5112679;28;19958;-45
2021/12/25 04:11:35;;;;;;;;;;;-3.20;99.90;;;;;;5112670;28;20349;-47
2021/12/25 04:14:01;;;;;;;;;;;-3.20;99.90;;;;;;5112959;28;20006;-48
2021/12/25 04:16:26;;;;;;;;;;;-3.20;99.90;;;;;;5112592;28;20072;-46
2021/12/25 04:18:52;;;;;;;;;;;-3.30;99.90;;;;;;5112782;28;19923;-49
2021/12/25 04:21:18;;;;;;;;;;;-3.30;99.90;;;;;;5112852;28;19916;-46
2021/12/25 04:23:44;;;;;;;;;;;-3.30;99.90;;;;;;5112513;28;19923;-47
2021/12/25 04:26:10;;;;;;;;;;;-3.30;99.90;;;;;;5112532;28;19930;-48
2021/12/25 04:28:58;;;;;;;;;;;-3.30;99.90;;;;;;5112392;28;19920;-47
2021/12/25 04:32:04;;;;;;;;;;;-3.30;99.90;;;;;;5112624;28;19981;-47
2021/12/25 04:49:11;;;;;;;;;;;-3.40;99.90;;;;;;5116217;28;19919;-46
2021/12/25 05:04:20;;;;;;;;;;;-3.50;99.90;;;;;;5115702;27;20416;-49
2021/12/25 05:06:47;;;;;;;;;;;-3.50;99.90;;;;;;5116096;28;20335;-46
2021/12/25 05:09:12;;;;;;;;;;;-3.50;99.90;;;;;;5115941;28;19945;-47
2021/12/25 05:11:38;;;;;;;;;;;-3.50;99.90;;;;;;5115822;28;19916;-47
2021/12/25 05:14:03;;;;;;;;;;;-3.60;99.90;;;;;;5114618;28;19923;-49
2021/12/25 05:16:29;;;;;;;;;;;-3.60;99.90;;;;;;5116038;28;20647;-48
2021/12/25 05:18:55;;;;;;;;;;;-3.60;99.90;;;;;;5115724;28;19941;-46
2021/12/25 05:21:21;;;;;;;;;;;-3.60;99.90;;;;;;5114251;28;20373;-45
2021/12/25 05:23:47;;;;;;;;;;;-3.60;99.90;;;;;;5115249;28;20356;-47
2021/12/25 05:26:13;;;;;;;;;;;-3.60;99.90;;;;;;5115411;28;19923;-47
2021/12/25 05:28:40;;;;;;;;;;;-3.60;99.90;;;;;;5115315;28;19920;-48
2021/12/25 05:31:07;;;;;;;;;;;-3.60;99.90;;;;;;5115637;28;19915;-48
2021/12/25 05:33:33;;;;;;;;;;;-3.60;99.90;;;;;;5115452;28;20293;-47
2021/12/25 05:35:58;;;;;;;;;;;-3.60;99.90;;;;;;5115447;27;19916;-47
2021/12/25 05:38:24;;;;;;;;;;;-3.60;99.90;;;;;;5115389;28;19922;-47
2021/12/25 05:40:50;;;;;;;;;;;-3.60;99.90;;;;;;5115071;28;20416;-47
2021/12/25 05:43:16;;;;;;;;;;;-3.60;99.90;;;;;;5115131;28;19916;-48
2021/12/25 05:45:42;;;;;;;;;;;-3.70;99.90;;;;;;5115494;28;19930;-47
2021/12/25 05:48:07;;;;;;;;;;;-3.60;99.90;;;;;;5115341;28;20399;-46
2021/12/25 05:50:33;;;;;;;;;;;-3.60;99.90;;;;;;5113807;28;19969;-47
2021/12/25 05:52:59;;;;;;;;;;;-3.60;99.90;;;;;;5115187;28;19922;-46
2021/12/25 05:55:25;;;;;;;;;;;-3.60;99.90;;;;;;5114657;28;19915;-47
2021/12/25 05:57:51;;;;;;;;;;;-3.60;99.90;;;;;;5114760;28;20296;-47
2021/12/25 06:00:17;;;;;;;;;;;-3.60;99.90;;;;;;5115040;28;19919;-49
2021/12/25 06:02:43;;;;;;;;;;;-3.60;99.90;;;;;;5115160;28;20686;-46
2021/12/25 06:05:08;;;;;;;;;;;-3.60;99.90;;;;;;5114980;28;20091;-46
2021/12/25 06:07:34;;;;;;;;;;;-3.60;99.90;;;;;;5114832;28;20482;-47
2021/12/25 06:09:59;;;;;;;;;;;-3.60;99.90;;;;;;5114714;28;20392;-47
2021/12/25 06:12:26;;;;;;;;;;;-3.60;99.90;;;;;;5114523;28;19915;-47
2021/12/25 06:14:53;;;;;;;;;;;-3.60;99.90;;;;;;5114555;28;19916;-46
2021/12/25 06:17:19;;;;;;;;;;;-3.60;99.90;;;;;;5113246;28;19916;-48
2021/12/25 06:19:44;;;;;;;;;;;-3.60;99.90;;;;;;5114496;28;20281;-47
2021/12/25 06:22:10;;;;;;;;;;;-3.60;99.90;;;;;;5114359;28;19999;-48
2021/12/25 06:24:35;;;;;;;;;;;-3.60;99.90;;;;;;5114475;28;20390;-48
2021/12/25 06:27:01;;;;;;;;;;;-3.70;99.90;;;;;;5114189;28;19915;-46
2021/12/25 06:29:27;;;;;;;;;;;-3.60;99.90;;;;;;5114416;28;19935;-46
2021/12/25 06:31:52;;;;;;;;;;;-3.60;99.90;;;;;;5114376;28;19961;-47
2021/12/25 06:34:19;;;;;;;;;;;-3.60;99.90;;;;;;5114044;28;20006;-47
2021/12/25 06:36:44;;;;;;;;;;;-3.60;99.90;;;;;;5114092;28;19916;-46
2021/12/25 06:39:14;;;;;;;;;;;-3.70;99.90;;;;;;5114152;28;19992;-49
2021/12/25 06:41:39;;;;;;;;;;;-3.60;99.90;;;;;;5114223;28;20258;-46
2021/12/25 06:44:05;;;;;;;;;;;-3.60;99.90;;;;;;5114298;28;19916;-46
2021/12/25 06:46:31;;;;;;;;;;;-3.70;99.90;;;;;;5114013;28;19923;-47
2021/12/25 06:48:56;;;;;;;;;;;-3.70;99.90;;;;;;5113850;28;20341;-46
2021/12/25 06:51:22;;;;;;;;;;;-3.70;99.90;;;;;;5114011;28;20347;-50
2021/12/25 06:53:47;;;;;;;;;;;-3.70;99.90;;;;;;5113881;28;19916;-47
2021/12/25 06:56:13;;;;;;;;;;;-3.70;99.90;;;;;;5113772;28;19919;-47
2021/12/25 06:58:39;;;;;;;;;;;-3.80;99.90;;;;;;5113829;28;19916;-46
2021/12/25 07:01:04;;;;;;;;;;;-3.70;99.90;;;;;;5113848;28;19915;-47
2021/12/25 07:03:30;;;;;;;;;;;-3.70;99.90;;;;;;5113581;28;19916;-47
2021/12/25 07:05:55;;;;;;;;;;;-3.70;99.90;;;;;;5113663;28;19923;-51
2021/12/25 07:08:21;;;;;;;;;;;-3.80;99.90;;;;;;5112629;28;19980;-48
2021/12/25 07:10:46;;;;;;;;;;;-3.80;99.90;;;;;;5113367;27;20406;-45
2021/12/25 07:13:17;;;;;;;;;;;-3.80;99.90;;;;;;5113457;28;19973;-48
2021/12/25 07:15:42;;;;;;;;;;;-3.80;99.90;;;;;;5113559;28;19924;-47
2021/12/25 07:18:08;;;;;;;;;;;-3.90;99.90;;;;;;5113764;28;19924;-47
2021/12/25 07:20:34;;;;;;;;;;;-3.90;99.90;;;;;;5113138;28;20278;-47
2021/12/25 07:23:00;;;;;;;;;;;-3.90;99.90;;;;;;5113101;28;19920;-46
2021/12/25 07:25:26;;;;;;;;;;;-3.90;99.90;;;;;;5113196;28;20415;-47
2021/12/25 07:27:52;;;;;;;;;;;-3.90;99.90;;;;;;5113243;28;19919;-48
2021/12/25 07:30:18;;;;;;;;;;;-4.00;99.90;;;;;;5113492;28;19937;-45
2021/12/25 07:32:43;;;;;;;;;;;-3.90;99.90;;;;;;5113195;28;19919;-47
2021/12/25 07:35:09;;;;;;;;;;;-3.90;99.90;;;;;;5113130;28;20323;-46
2021/12/25 07:37:35;;;;;;;;;;;-4.00;99.90;;;;;;5113077;28;20006;-47
2021/12/25 07:40:01;;;;;;;;;;;-4.00;99.90;;;;;;5113479;28;20380;-46
2021/12/25 07:42:26;;;;;;;;;;;-4.00;99.90;;;;;;5113411;28;19976;-48
2021/12/25 07:44:55;;;;;;;;;;;-4.00;99.90;;;;;;5113107;28;19915;-46
2021/12/25 07:47:22;;;;;;;;;;;-4.00;99.90;;;;;;5113258;28;19971;-46
2021/12/25 07:49:48;;;;;;;;;;;-4.00;99.90;;;;;;5113270;28;19923;-48
2021/12/25 07:52:15;;;;;;;;;;;-4.00;99.90;;;;;;5113019;28;19920;-46
2021/12/25 07:54:40;;;;;;;;;;;-4.00;99.90;;;;;;5112877;28;20421;-46
2021/12/25 07:57:06;;;;;;;;;;;-4.00;99.90;;;;;;5112999;28;20006;-46
2021/12/25 07:59:31;;;;;;;;;;;-4.00;99.90;;;;;;5112936;28;19919;-46
2021/12/25 08:01:57;;;;;;;;;;;-4.00;99.90;;;;;;5112928;28;20078;-47
2021/12/25 08:04:22;;;;;;;;;;;-4.00;99.90;;;;;;5113046;28;19955;-48
2021/12/25 08:06:48;;;;;;;;;;;-4.10;99.90;;;;;;5112914;28;19919;-48
2021/12/25 08:09:17;;;;;;;;;;;-4.10;99.90;;;;;;5112366;28;20308;-46
2021/12/25 08:11:42;;;;;;;;;;;-4.10;99.90;;;;;;5112822;28;19915;-46
2021/12/25 08:14:08;;;;;;;;;;;-4.00;99.90;;;;;;5112855;28;19922;-47
2021/12/25 08:16:33;;;;;;;;;;;-4.00;99.90;;;;;;5112669;28;19919;-51
2021/12/25 08:18:59;;;;;;;;;;;-4.00;99.90;;;;;;5113480;28;19967;-45
2021/12/25 08:21:24;;;;;;;;;;;-4.00;99.90;;;;;;5116657;28;19962;-45
2021/12/25 08:23:50;;;;;;;;;;;-4.00;99.90;;;;;;5116466;28;19920;-46
2021/12/25 08:26:16;;;;;;;;;;;-4.10;99.90;;;;;;5116957;28;19915;-47
2021/12/25 08:28:41;;;;;;;;;;;-4.00;99.90;;;;;;5116385;28;19920;-46
2021/12/25 08:31:07;;;;;;;;;;;-4.00;99.90;;;;;;5116579;28;19965;-48
2021/12/25 08:33:32;;;;;;;;;;;-4.00;99.90;;;;;;5116691;28;20716;-45
2021/12/25 08:35:58;;;;;;;;;;;-4.00;99.90;;;;;;5116434;28;19915;-46
2021/12/25 08:38:23;;;;;;;;;;;-4.00;99.90;;;;;;5116481;28;19922;-46
2021/12/25 08:40:53;;;;;;;;;;;-4.00;99.90;;;;;;5116521;28;19916;-46
2021/12/25 08:43:24;;;;;;;;;;;-4.00;99.90;;;;;;5116259;28;19916;-46
2021/12/25 08:46:00;;;;;;;;;;;-3.90;99.90;;;;;;5116389;28;19915;-47
2021/12/25 08:48:26;;;;;;;;;;;-3.90;99.90;;;;;;5115036;28;20434;-46
2021/12/25 08:50:54;;;;;;;;;;;-3.90;99.90;;;;;;5116250;28;20362;-46
2021/12/25 08:53:20;;;;;;;;;;;-3.90;99.90;;;;;;5116458;27;19915;-46
2021/12/25 08:55:46;;;;;;;;;;;-3.80;99.90;;;;;;5116330;28;19923;-47
2021/12/25 08:58:12;;;;;;;;;;;-3.80;99.90;;;;;;5114608;28;19965;-47
2021/12/25 09:00:38;;;;;;;;;;;-3.70;99.90;;;;;;5114880;28;19915;-46
2021/12/25 09:03:03;;;;;;;;;;;-3.60;99.90;;;;;;5115816;28;19985;-45
2021/12/25 09:05:29;;;;;;;;;;;-3.50;99.90;;;;;;5115778;28;19915;-46
2021/12/25 09:07:54;;;;;;;;;;;-3.50;99.90;;;;;;5115986;28;19928;-48
2021/12/25 09:10:21;;;;;;;;;;;-3.50;99.90;;;;;;5115885;28;20401;-48
2021/12/25 09:12:49;;;;;;;;;;;-3.50;99.90;;;;;;5115772;28;20019;-50
2021/12/25 09:15:14;;;;;;;;;;;-3.50;99.90;;;;;;5114412;28;20319;-48
2021/12/25 09:17:40;;;;;;;;;;;-3.50;99.90;;;;;;5115752;28;20006;-49
2021/12/25 09:20:06;;;;;;;;;;;-3.40;99.90;;;;;;5115954;28;20026;-46
2021/12/25 09:22:32;;;;;;;;;;;-3.40;99.90;;;;;;5115433;28;19919;-48
2021/12/25 09:24:57;;;;;;;;;;;-3.40;99.90;;;;;;5115638;28;19922;-47
2021/12/25 09:27:23;;;;;;;;;;;-3.40;99.90;;;;;;5115569;28;19934;-48
2021/12/25 09:29:49;;;;;;;;;;;-3.30;99.90;;;;;;5115467;28;19931;-46
2021/12/25 09:32:14;;;;;;;;;;;-3.20;99.90;;;;;;5114408;28;19924;-47
2021/12/25 09:34:40;;;;;;;;;;;-3.20;99.90;;;;;;5115018;28;20018;-48
2021/12/25 09:37:06;;;;;;;;;;;-3.10;99.90;;;;;;5115305;28;19930;-49
2021/12/25 09:39:32;;;;;;;;;;;-3.10;99.90;;;;;;5115091;28;19915;-47
2021/12/25 09:41:58;;;;;;;;;;;-3.00;99.90;;;;;;5115304;28;20273;-48
2021/12/25 09:44:23;;;;;;;;;;;-3.00;99.90;;;;;;5113973;28;19919;-47
2021/12/25 09:46:50;;;;;;;;;;;-2.90;99.90;;;;;;5115126;28;19969;-46
2021/12/25 09:49:15;;;;;;;;;;;-2.90;99.90;;;;;;5115200;28;19919;-47
2021/12/25 09:51:41;;;;;;;;;;;-2.70;99.90;;;;;;5114995;28;19922;-48
2021/12/25 09:54:08;;;;;;;;;;;-2.60;99.90;;;;;;5115035;27;19916;-47
2021/12/25 09:56:34;;;;;;;;;;;-2.50;99.90;;;;;;5114864;28;19919;-50
2021/12/25 09:59:00;;;;;;;;;;;-2.30;99.90;;;;;;5114875;28;19958;-49
2021/12/25 10:01:32;;;;;;;;;;;-2.20;99.90;;;;;;5114713;28;19958;-50
2021/12/25 10:03:58;;;;;;;;;;;-2.20;99.90;;;;;;5114648;28;19929;-46
2021/12/25 10:06:37;;;;;;;;;;;-2.30;99.90;;;;;;5114796;28;19934;-46
2021/12/25 10:09:24;;;;;;;;;;;-2.10;99.90;;;;;;5113430;28;19919;-47
2021/12/25 10:11:57;;;;;;;;;;;-2.10;99.90;;;;;;5114648;28;19924;-48
2021/12/25 10:14:22;;;;;;;;;;;-2.00;99.90;;;;;;5114960;27;19919;-49
2021/12/25 10:16:48;;;;;;;;;;;-1.90;99.90;;;;;;5114715;28;19915;-49
2021/12/25 10:19:16;;;;;;;;;;;-1.80;99.90;;;;;;5114595;28;19972;-49
2021/12/25 10:21:42;;;;;;;;;;;-1.80;99.90;;;;;;5114988;28;19916;-47
2021/12/25 10:24:11;;;;;;;;;;;-1.80;99.90;;;;;;5114208;28;19945;-47
2021/12/25 10:26:38;;;;;;;;;;;-1.70;99.90;;;;;;5114530;28;19920;-48
2021/12/25 10:29:22;;;;;;;;;;;-1.80;99.90;;;;;;5114580;28;19932;-49
2021/12/25 10:31:48;;;;;;;;;;;-1.80;99.90;;;;;;5114218;28;19915;-50
2021/12/25 10:34:21;;;;;;;;;;;-1.80;99.90;;;;;;5114003;28;19919;-45
2021/12/25 10:36:47;;;;;;;;;;;-1.80;99.90;;;;;;5114038;28;20352;-48
2021/12/25 10:39:16;;;;;;;;;;;-1.80;99.90;;;;;;5114364;28;20006;-47
2021/12/25 10:41:52;;;;;;;;;;;-1.70;99.90;;;;;;5114143;28;19916;-50
2021/12/25 10:44:20;;;;;;;;;;;-1.70;99.90;;;;;;5113980;28;19915;-46
2021/12/25 10:46:47;;;;;;;;;;;-1.70;99.90;;;;;;5114009;28;19968;-46
2021/12/25 10:49:13;;;;;;;;;;;-1.60;99.90;;;;;;5113879;28;20032;-47
2021/12/25 10:51:38;;;;;;;;;;;-1.50;99.90;;;;;;5113833;28;20373;-47
2021/12/25 10:54:04;;;;;;;;;;;-1.50;99.90;;;;;;5113955;28;19920;-46
2021/12/25 10:56:33;;;;;;;;;;;-1.30;99.90;;;;;;5113935;28;20280;-46
2021/12/25 10:59:08;;;;;;;;;;;-1.30;99.90;;;;;;5113724;28;19961;-49
2021/12/25 11:01:38;;;;;;;;;;;-1.20;99.90;;;;;;5113751;28;20400;-46
2021/12/25 11:04:04;;;;;;;;;;;-1.10;99.90;;;;;;5113795;28;19926;-49
2021/12/25 11:06:29;;;;;;;;;;;-1.00;99.90;;;;;;5112643;28;19916;-49
2021/12/25 11:08:57;;;;;;;;;;;-0.90;99.90;;;;;;5113708;28;19926;-48
2021/12/25 11:11:23;;;;;;;;;;;-0.90;99.90;;;;;;5113527;28;19960;-46
2021/12/25 11:13:52;;;;;;;;;;;-0.90;99.90;;;;;;5113729;28;19920;-49
2021/12/25 11:16:27;;;;;;;;;;;-0.90;99.90;;;;;;5113686;28;19927;-47
2021/12/25 11:19:16;;;;;;;;;;;-0.80;99.90;;;;;;5113439;28;19915;-48
2021/12/25 11:22:02;;;;;;;;;;;-0.70;99.90;;;;;;5113419;28;19959;-48
2021/12/25 11:24:37;;;;;;;;;;;-0.80;99.90;;;;;;5111425;28;20380;-47
2021/12/25 11:27:04;;;;;;;;;;;-0.80;99.90;;;;;;5113212;28;20361;-49
2021/12/25 11:29:31;;;;;;;;;;;-0.70;99.90;;;;;;5113271;28;19919;-50
2021/12/25 11:31:57;;;;;;;;;;;-0.60;99.90;;;;;;5113359;28;19922;-49
2021/12/25 11:34:23;;;;;;;;;;;-0.60;99.90;;;;;;5113216;28;20347;-49
2021/12/25 11:36:50;;;;;;;;;;;-0.70;99.90;;;;;;5113249;28;19934;-47
2021/12/25 11:39:16;;;;;;;;;;;-0.50;99.90;;;;;;5113239;28;19947;-47
2021/12/25 11:41:43;;;;;;;;;;;-0.50;99.90;;;;;;5113498;28;19927;-49
2021/12/25 11:44:27;;;;;;;;;;;-0.40;99.90;;;;;;5113047;28;19915;-48
2021/12/25 11:46:52;;;;;;;;;;;-0.10;99.90;;;;;;5113106;28;19916;-49
2021/12/25 11:49:18;;;;;;;;;;;0.00;99.90;;;;;;5112991;28;19927;-47
2021/12/25 11:51:46;;;;;;;;;;;0.10;99.90;;;;;;5112881;28;19935;-48
2021/12/25 11:54:27;;;;;;;;;;;0.20;99.90;;;;;;5115880;28;20026;-52
2021/12/25 11:59:51;;;;;;;;;;;0.10;99.90;;;;;;5117617;28;19915;-48
2021/12/25 12:02:35;;;;;;;;;;;0.10;99.90;;;;;;5117344;28;19915;-52
2021/12/25 12:05:19;;;;;;;;;;;0.10;99.90;;;;;;5117592;28;19922;-52
2021/12/25 12:08:15;;;;;;;;;;;0.00;99.90;;;;;;5117688;28;20874;-49
2021/12/25 12:10:43;;;;;;;;;;;0.10;99.90;;;;;;5076614;28;20413;-48
2021/12/25 12:13:22;;;;;;;;;;;-0.10;99.90;;;;;;5076657;28;19966;-48
2021/12/25 12:15:49;;;;;;;;;;;-0.20;99.90;;;;;;5076785;28;20223;-46
2021/12/25 12:18:24;;;;;;;;;;;-0.40;99.90;;;;;;5076875;28;20067;-48
2021/12/25 12:20:50;;;;;;;;;;;-0.40;99.90;;;;;;5076552;28;19924;-47
2021/12/25 12:26:42;;;;;;;;;;;-0.70;99.90;;;;;;5036487;28;19927;-48
2021/12/25 12:29:07;;;;;;;;;;;-0.70;99.90;;;;;;5036523;28;19928;-52
2021/12/25 12:31:34;;;;;;;;;;;-0.70;99.90;;;;;;5036529;28;19917;-47
2021/12/25 12:33:59;;;;;;;;;;;-0.80;99.90;;;;;;5036554;28;19956;-47
2021/12/25 12:36:26;;;;;;;;;;;-0.90;99.90;;;;;;5000512;28;20257;-48
2021/12/25 12:38:56;;;;;;;;;;;-0.90;99.90;;;;;;4997024;28;19952;-48
2021/12/25 12:44:43;;;;;;;;;;;-1.00;99.90;;;;;;4977506;28;19917;-48
2021/12/25 12:47:11;;;;;;;;;;;-1.10;99.90;;;;;;4998261;28;19918;-48
2021/12/25 12:49:42;;;;;;;;;;;-1.00;99.90;;;;;;5016536;28;19921;-49
2021/12/25 12:52:16;;;;;;;;;;;-1.10;99.90;;;;;;5016439;28;20314;-48
2021/12/25 12:54:42;;;;;;;;;;;-1.10;99.90;;;;;;5016475;28;20063;-48
2021/12/25 12:57:07;;;;;;;;;;;-1.10;99.90;;;;;;5016623;28;19933;-49
2021/12/25 12:59:43;;;;;;;;;;;-1.10;99.90;;;;;;5016611;28;20043;-47
2021/12/25 13:02:08;;;;;;;;;;;-1.20;99.90;;;;;;5034888;28;19915;-49
2021/12/25 13:04:46;;;;;;;;;;;-1.20;99.90;;;;;;5098516;28;19931;-48
2021/12/25 13:07:13;;;;;;;;;;;-1.20;99.90;;;;;;5094517;28;19952;-48
2021/12/25 13:09:44;;;;;;;;;;;-1.20;99.90;;;;;;5095295;28;20011;-50
2021/12/25 13:12:21;;;;;;;;;;;-1.20;99.90;;;;;;5095669;28;19975;-51
2021/12/25 13:14:56;;;;;;;;;;;-1.20;99.90;;;;;;5095376;28;19916;-48
2021/12/25 13:17:22;;;;;;;;;;;-1.30;99.90;;;;;;5095323;28;20010;-47
2021/12/25 13:19:47;;;;;;;;;;;-1.30;99.90;;;;;;5095041;28;20445;-47
2021/12/25 13:22:13;;;;;;;;;;;-1.30;99.90;;;;;;5095357;28;19919;-47
2021/12/25 13:24:39;;;;;;;;;;;-1.30;99.90;;;;;;5094963;28;19920;-47
2021/12/25 13:27:06;;;;;;;;;;;-1.30;99.90;;;;;;5095000;28;20362;-52
2021/12/25 13:29:31;;;;;;;;;;;-1.30;99.90;;;;;;5094852;28;19966;-48
2021/12/25 13:31:57;;;;;;;;;;;-1.30;99.90;;;;;;5095172;28;19963;-46
2021/12/25 13:34:23;;;;;;;;;;;-1.30;99.90;;;;;;5095183;28;19974;-50
2021/12/25 13:36:48;;;;;;;;;;;-1.20;99.90;;;;;;5110588;28;19981;-47
2021/12/25 13:39:16;;;;;;;;;;;-1.10;99.90;;;;;;5094716;28;19959;-48
2021/12/25 13:41:42;;;;;;;;;;;-1.00;99.90;;;;;;5094760;28;19916;-47
2021/12/25 13:44:18;;;;;;;;;;;-1.00;99.90;;;;;;5094864;28;19922;-49
2021/12/25 13:46:46;;;;;;;;;;;-1.00;99.90;;;;;;5094851;28;19969;-47
2021/12/25 13:49:30;;;;;;;;;;;-0.90;99.90;;;;;;5094617;28;19963;-47
2021/12/25 13:51:57;;;;;;;;;;;-1.00;99.90;;;;;;5094740;28;20282;-49
2021/12/25 13:54:23;;;;;;;;;;;-1.00;99.90;;;;;;5094668;28;19916;-48
2021/12/25 13:56:49;;;;;;;;;;;-1.00;99.90;;;;;;5094545;28;19919;-49
2021/12/25 13:59:15;;;;;;;;;;;-1.00;99.90;;;;;;5094275;28;20376;-47
2021/12/25 14:01:40;;;;;;;;;;;-1.10;99.90;;;;;;5094321;28;19916;-49
2021/12/25 14:04:12;;;;;;;;;;;-1.10;99.90;;;;;;5094558;28;19922;-47
2021/12/25 14:06:38;;;;;;;;;;;-1.10;99.90;;;;;;5094255;28;19916;-48
2021/12/25 14:09:04;;;;;;;;;;;-1.20;99.90;;;;;;5094231;28;19928;-47
2021/12/25 14:11:29;;;;;;;;;;;-1.30;99.90;;;;;;5094160;28;19916;-47
2021/12/25 14:13:55;;;;;;;;;;;-1.30;99.90;;;;;;5094063;28;20357;-48
2021/12/25 14:16:21;;;;;;;;;;;-1.40;99.90;;;;;;5094040;28;20009;-50
2021/12/25 14:18:47;;;;;;;;;;;-1.40;99.90;;;;;;5094012;28;20277;-47
2021/12/25 14:21:17;;;;;;;;;;;-1.40;99.90;;;;;;5094079;28;19916;-48
2021/12/25 14:23:43;;;;;;;;;;;-1.40;99.90;;;;;;5093729;28;20351;-49
2021/12/25 14:26:09;;;;;;;;;;;-1.50;99.90;;;;;;5093876;28;19916;-50
2021/12/25 14:28:36;;;;;;;;;;;-1.50;99.90;;;;;;5093949;28;19959;-48
2021/12/25 14:31:12;;;;;;;;;;;-1.60;99.90;;;;;;5094050;28;19923;-51
2021/12/25 14:34:02;;;;;;;;;;;-1.60;99.90;;;;;;5093555;28;19968;-47
2021/12/25 14:36:33;;;;;;;;;;;-1.60;99.90;;;;;;5071135;28;20020;-48
2021/12/25 14:38:58;;;;;;;;;;;-1.60;99.90;;;;;;5071253;28;19920;-50
2021/12/25 14:41:31;;;;;;;;;;;-1.60;99.90;;;;;;5071415;28;19974;-49
2021/12/25 14:43:56;;;;;;;;;;;-1.70;99.90;;;;;;5071173;28;19960;-47
2021/12/25 14:46:23;;;;;;;;;;;-1.80;99.90;;;;;;5071227;28;20452;-49
2021/12/25 14:48:49;;;;;;;;;;;-1.70;99.90;;;;;;5070724;28;19994;-49
2021/12/25 14:51:16;;;;;;;;;;;-1.80;99.90;;;;;;5070872;28;20360;-47
2021/12/25 14:53:46;;;;;;;;;;;-1.80;99.90;;;;;;5070768;28;19939;-49
2021/12/25 14:56:16;;;;;;;;;;;-1.80;99.90;;;;;;5070673;28;19920;-51
2021/12/25 14:58:45;;;;;;;;;;;-1.80;99.90;;;;;;5070665;28;19923;-48
2021/12/25 15:01:18;;;;;;;;;;;-1.80;99.90;;;;;;5070660;28;19923;-49
2021/12/25 15:03:45;;;;;;;;;;;-1.90;99.90;;;;;;5070779;28;19920;-49
2021/12/25 15:06:23;;;;;;;;;;;-1.90;99.90;;;;;;5070522;28;20280;-47
2021/12/25 15:09:03;;;;;;;;;;;-1.90;99.90;;;;;;5070692;28;19931;-50
2021/12/25 15:11:33;;;;;;;;;;;-1.90;99.90;;;;;;5070813;28;19916;-48
2021/12/25 15:14:00;;;;;;;;;;;-1.90;99.90;;;;;;5086898;28;20013;-49
2021/12/25 15:16:52;;;;;;;;;;;-1.90;99.90;;;;;;5093165;28;19916;-50
2021/12/25 15:19:22;;;;;;;;;;;-2.00;99.90;;;;;;5091420;28;20281;-47
2021/12/25 15:21:48;;;;;;;;;;;-2.00;99.90;;;;;;5092905;28;19915;-51
2021/12/25 15:24:16;;;;;;;;;;;-2.00;99.90;;;;;;5092480;28;20018;-47
2021/12/25 15:26:44;;;;;;;;;;;-2.10;99.90;;;;;;5092925;28;19920;-48
2021/12/25 15:29:10;;;;;;;;;;;-2.10;99.90;;;;;;5092069;28;19923;-48
2021/12/25 15:31:36;;;;;;;;;;;-2.10;99.90;;;;;;5092683;28;19916;-46
2021/12/25 15:34:06;;;;;;;;;;;-2.10;99.90;;;;;;5092743;28;19916;-46
2021/12/25 15:36:33;;;;;;;;;;;-2.20;99.90;;;;;;5091364;28;19915;-48
2021/12/25 15:39:09;;;;;;;;;;;-2.20;99.90;;;;;;5092468;28;19916;-48
2021/12/25 15:41:34;;;;;;;;;;;-2.20;99.90;;;;;;5092709;28;19916;-48